createdAt,value
2017-12-08T00:02:00.689Z,99.90
2017-12-08T00:04:28.098Z,99.90
2017-12-08T00:06:55.746Z,99.90
2017-12-08T00:09:22.412Z,99.90
2017-12-08T00:11:49.044Z,99.90
2017-12-08T00:14:16.635Z,99.90
2017-12-08T00:16:43.256Z,99.90
2017-12-08T00:19:10.512Z,99.90
2017-12-08T00:21:37.164Z,99.90
2017-12-08T00:24:03.833Z,99.90
2017-12-08T00:26:31.222Z,99.90
2017-12-08T00:28:57.836Z,99.90
2017-12-08T00:31:25.200Z,99.90
2017-12-08T00:33:51.935Z,99.90
2017-12-08T00:36:19.315Z,99.90
2017-12-08T00:38:46.003Z,99.90
2017-12-08T00:41:12.691Z,99.90
2017-12-08T00:43:40.066Z,99.90
2017-12-08T00:46:07.058Z,99.90
2017-12-08T00:48:33.726Z,99.90
2017-12-08T00:51:00.370Z,99.90
2017-12-08T00:53:27.579Z,99.90
2017-12-08T00:55:54.226Z,99.90
2017-12-08T00:58:20.879Z,99.90
2017-12-08T01:00:47.553Z,99.90
2017-12-08T01:03:14.949Z,99.90
2017-12-08T01:05:41.612Z,99.90
2017-12-08T01:08:08.254Z,99.90
2017-12-08T01:10:34.901Z,99.90
2017-12-08T01:13:01.913Z,99.90
2017-12-08T01:15:29.240Z,99.90
2017-12-08T01:17:55.898Z,99.90
2017-12-08T01:20:23.290Z,99.90
2017-12-08T01:22:50.034Z,99.90
2017-12-08T01:25:16.962Z,99.90
2017-12-08T01:27:44.448Z,99.90
2017-12-08T01:30:11.102Z,99.90
2017-12-08T01:32:37.885Z,99.90
2017-12-08T01:35:04.559Z,99.90
2017-12-08T01:37:31.344Z,99.90
2017-12-08T01:39:58.006Z,99.90
2017-12-08T01:42:24.664Z,99.90
2017-12-08T01:44:52.098Z,99.90
2017-12-08T01:47:18.751Z,99.90
2017-12-08T01:49:45.424Z,99.90
2017-12-08T01:52:12.858Z,99.70
2017-12-08T01:54:39.550Z,99.60
2017-12-08T01:57:06.246Z,99.90
2017-12-08T01:59:32.930Z,99.60
2017-12-08T02:01:59.578Z,99.40
2017-12-08T02:04:26.265Z,99.70
2017-12-08T02:06:53.896Z,99.30
2017-12-08T02:09:20.566Z,99.10
2017-12-08T02:11:48.195Z,99.00
2017-12-08T02:14:14.867Z,99.40
2017-12-08T02:16:41.527Z,99.30
2017-12-08T02:19:08.211Z,98.30
2017-12-08T02:21:34.963Z,97.70
2017-12-08T02:24:01.823Z,97.90
2017-12-08T02:26:28.535Z,98.40
2017-12-08T02:28:56.013Z,97.70
2017-12-08T02:31:22.703Z,97.70
2017-12-08T02:33:49.641Z,97.50
2017-12-08T02:36:17.729Z,97.20
2017-12-08T02:38:44.413Z,96.90
2017-12-08T02:41:11.105Z,97.00
2017-12-08T02:43:37.770Z,96.70
2017-12-08T02:46:04.436Z,97.10
2017-12-08T02:48:31.880Z,98.20
2017-12-08T02:50:59.348Z,98.60
2017-12-08T02:53:26.792Z,98.20
2017-12-08T02:55:53.453Z,98.20
2017-12-08T02:58:20.882Z,98.10
2017-12-08T03:00:47.693Z,98.10
2017-12-08T03:03:14.354Z,98.10
2017-12-08T03:05:41.046Z,98.60
2017-12-08T03:08:08.486Z,98.40
2017-12-08T03:10:35.168Z,98.30
2017-12-08T03:13:01.867Z,98.20
2017-12-08T03:15:29.344Z,98.20
2017-12-08T03:17:56.752Z,98.20
2017-12-08T03:20:23.409Z,97.90
2017-12-08T03:22:50.107Z,98.40
2017-12-08T03:25:17.510Z,97.60
2017-12-08T03:27:44.942Z,96.80
2017-12-08T03:30:11.717Z,96.80
2017-12-08T03:32:38.422Z,96.20
2017-12-08T03:35:05.167Z,96.30
2017-12-08T03:37:31.838Z,96.30
2017-12-08T03:39:58.495Z,96.60
2017-12-08T03:42:25.234Z,95.90
2017-12-08T03:44:51.884Z,95.40
2017-12-08T03:47:18.570Z,95.60
2017-12-08T03:49:46.046Z,95.10
2017-12-08T03:52:12.712Z,95.10
2017-12-08T03:54:39.407Z,94.50
2017-12-08T03:57:06.834Z,94.40
2017-12-08T03:59:33.516Z,94.30
2017-12-08T04:02:00.937Z,94.60
2017-12-08T04:04:27.569Z,94.60
2017-12-08T04:06:54.288Z,94.80
2017-12-08T04:09:20.978Z,94.30
2017-12-08T04:11:47.628Z,94.10
2017-12-08T04:14:14.302Z,94.00
2017-12-08T04:16:40.957Z,94.30
2017-12-08T04:19:07.606Z,94.30
2017-12-08T04:21:34.296Z,93.80
2017-12-08T04:24:00.972Z,93.30
2017-12-08T04:26:28.375Z,92.10
2017-12-08T04:28:55.074Z,92.10
2017-12-08T04:31:23.429Z,90.90
2017-12-08T04:33:50.082Z,90.90
2017-12-08T04:36:17.566Z,91.40
2017-12-08T04:38:44.246Z,91.40
2017-12-08T04:41:10.926Z,90.40
2017-12-08T04:43:39.161Z,88.20
2017-12-08T04:46:05.895Z,88.20
2017-12-08T04:48:32.559Z,88.90
2017-12-08T04:50:59.266Z,87.90
2017-12-08T04:53:25.971Z,88.10
2017-12-08T04:55:53.430Z,88.80
2017-12-08T04:58:20.873Z,89.10
2017-12-08T05:00:47.553Z,89.00
2017-12-08T05:03:14.958Z,88.40
2017-12-08T05:05:41.653Z,88.40
2017-12-08T05:08:09.050Z,89.20
2017-12-08T05:10:35.728Z,89.20
2017-12-08T05:13:02.433Z,89.60
2017-12-08T05:15:29.147Z,88.60
2017-12-08T05:17:56.560Z,89.20
2017-12-08T05:20:23.259Z,89.10
2017-12-08T05:22:49.985Z,89.90
2017-12-08T05:25:17.394Z,89.50
2017-12-08T05:27:44.052Z,89.50
2017-12-08T05:30:10.692Z,87.00
2017-12-08T05:32:37.357Z,85.40
2017-12-08T05:35:04.013Z,86.50
2017-12-08T05:37:31.429Z,90.00
2017-12-08T05:39:58.101Z,90.00
2017-12-08T05:42:24.757Z,90.40
2017-12-08T05:44:52.197Z,92.40
2017-12-08T05:47:18.937Z,92.40
2017-12-08T05:49:45.587Z,92.70
2017-12-08T05:52:12.240Z,93.60
2017-12-08T05:54:38.959Z,93.50
2017-12-08T05:57:05.613Z,93.40
2017-12-08T05:59:32.265Z,93.20
2017-12-08T06:01:59.009Z,93.60
2017-12-08T06:04:25.673Z,93.50
2017-12-08T06:06:53.110Z,94.10
2017-12-08T06:09:19.817Z,94.10
2017-12-08T06:11:46.470Z,94.10
2017-12-08T06:14:14.016Z,93.90
2017-12-08T06:16:40.678Z,94.30
2017-12-08T06:19:07.356Z,94.10
2017-12-08T06:21:34.774Z,93.90
2017-12-08T06:24:01.398Z,93.80
2017-12-08T06:26:28.071Z,93.80
2017-12-08T06:28:54.721Z,94.00
2017-12-08T06:31:21.388Z,93.20
2017-12-08T06:33:48.771Z,92.30
2017-12-08T06:36:15.413Z,92.30
2017-12-08T06:38:42.160Z,92.20
2017-12-08T06:41:08.841Z,93.50
2017-12-08T06:43:35.552Z,93.30
2017-12-08T06:46:02.199Z,93.00
2017-12-08T06:48:28.889Z,91.90
2017-12-08T06:50:55.536Z,91.20
2017-12-08T06:53:22.261Z,90.30
2017-12-08T06:55:48.912Z,85.00
2017-12-08T06:58:15.587Z,78.00
2017-12-08T07:00:42.227Z,71.00
2017-12-08T07:03:08.901Z,65.40
2017-12-08T07:05:35.563Z,62.30
2017-12-08T07:08:03.745Z,56.90
2017-12-08T07:10:30.504Z,57.60
2017-12-08T07:12:57.235Z,54.70
2017-12-08T07:15:24.476Z,55.30
2017-12-08T07:17:51.186Z,55.30
2017-12-08T07:20:17.885Z,55.10
2017-12-08T07:22:44.598Z,54.60
2017-12-08T07:25:11.332Z,53.20
2017-12-08T07:27:37.980Z,54.00
2017-12-08T07:30:04.706Z,55.80
2017-12-08T07:32:31.404Z,58.30
2017-12-08T07:34:58.111Z,59.30
2017-12-08T07:37:24.828Z,60.40
2017-12-08T07:39:51.522Z,61.70
2017-12-08T07:42:18.257Z,63.10
2017-12-08T07:44:44.901Z,66.80
2017-12-08T07:47:11.570Z,68.30
2017-12-08T07:49:38.292Z,69.90
2017-12-08T07:52:05.007Z,72.10
2017-12-08T07:54:31.687Z,73.80
2017-12-08T07:56:58.349Z,74.40
2017-12-08T07:59:25.723Z,76.80
2017-12-08T08:01:53.117Z,79.80
2017-12-08T08:04:19.826Z,79.80
2017-12-08T08:06:46.514Z,79.10
2017-12-08T08:09:13.155Z,81.80
2017-12-08T08:11:39.844Z,81.90
2017-12-08T08:14:08.098Z,68.60
2017-12-08T08:16:34.844Z,69.30
2017-12-08T08:19:01.561Z,69.30
2017-12-08T08:21:28.241Z,68.80
2017-12-08T08:23:55.232Z,67.10
2017-12-08T08:26:21.933Z,66.20
2017-12-08T08:28:48.683Z,65.40
2017-12-08T08:31:15.373Z,64.00
2017-12-08T08:33:42.058Z,64.70
2017-12-08T08:36:08.766Z,63.30
2017-12-08T08:38:35.538Z,65.20
2017-12-08T08:41:02.323Z,65.30
2017-12-08T08:43:30.603Z,65.60
2017-12-08T08:45:58.078Z,66.20
2017-12-08T08:48:24.796Z,66.10
2017-12-08T08:50:52.983Z,64.70
2017-12-08T08:53:20.506Z,65.80
2017-12-08T08:55:47.201Z,65.80
2017-12-08T08:58:13.913Z,66.50
2017-12-08T09:00:40.650Z,65.90
2017-12-08T09:03:07.319Z,65.20
2017-12-08T09:05:34.768Z,67.50
2017-12-08T09:08:02.235Z,67.50
2017-12-08T09:10:29.685Z,68.50
2017-12-08T09:12:56.425Z,68.50
2017-12-08T09:15:23.147Z,69.00
2017-12-08T09:17:50.153Z,68.00
2017-12-08T09:20:16.827Z,67.00
2017-12-08T09:22:43.494Z,66.20
2017-12-08T09:25:10.231Z,66.10
2017-12-08T09:27:36.923Z,68.20
2017-12-08T09:30:04.659Z,67.80
2017-12-08T09:32:31.414Z,67.80
2017-12-08T09:34:58.844Z,69.00
2017-12-08T09:37:25.513Z,68.20
2017-12-08T09:39:52.228Z,67.70
2017-12-08T09:42:18.905Z,68.60
2017-12-08T09:44:46.321Z,68.70
2017-12-08T09:47:13.062Z,68.60
2017-12-08T09:49:39.767Z,69.20
2017-12-08T09:52:07.198Z,67.50
2017-12-08T09:54:33.934Z,67.50
2017-12-08T09:57:00.611Z,67.10
2017-12-08T09:59:28.094Z,66.50
2017-12-08T10:01:54.806Z,66.50
2017-12-08T10:04:22.269Z,67.10
2017-12-08T10:06:49.727Z,65.40
2017-12-08T10:09:16.467Z,65.40
2017-12-08T10:11:43.175Z,64.30
2017-12-08T10:14:09.857Z,63.00
2017-12-08T10:16:37.304Z,64.30
2017-12-08T10:19:04.004Z,64.30
2017-12-08T10:21:30.753Z,63.00
2017-12-08T10:23:57.527Z,63.30
2017-12-08T10:26:25.114Z,59.70
2017-12-08T10:28:52.530Z,63.00
2017-12-08T10:31:19.271Z,63.00
2017-12-08T10:33:45.975Z,60.80
2017-12-08T10:36:14.048Z,61.60
2017-12-08T10:38:40.734Z,61.60
2017-12-08T10:41:07.394Z,61.50
2017-12-08T10:43:34.270Z,61.80
2017-12-08T10:46:01.695Z,64.60
2017-12-08T10:48:28.794Z,63.90
2017-12-08T10:50:56.579Z,64.30
2017-12-08T10:53:23.311Z,64.30
2017-12-08T10:55:50.763Z,64.20
2017-12-08T10:58:18.213Z,63.20
2017-12-08T11:00:45.834Z,63.20
2017-12-08T11:03:13.454Z,63.80
2017-12-08T11:05:41.830Z,63.90
2017-12-08T11:08:09.290Z,64.20
2017-12-08T11:10:36.722Z,64.60
2017-12-08T11:13:03.452Z,64.60
2017-12-08T11:15:30.303Z,64.90
2017-12-08T11:17:57.932Z,65.90
2017-12-08T11:20:24.633Z,66.20
2017-12-08T11:22:51.298Z,65.40
2017-12-08T11:25:18.808Z,65.80
2017-12-08T11:27:45.496Z,65.80
2017-12-08T11:30:13.014Z,65.90
2017-12-08T11:32:39.765Z,65.70
2017-12-08T11:35:06.486Z,64.80
2017-12-08T11:37:34.086Z,66.00
2017-12-08T11:40:00.793Z,66.10
2017-12-08T11:42:27.481Z,66.50
2017-12-08T11:44:54.206Z,66.40
2017-12-08T11:47:20.881Z,66.70
2017-12-08T11:49:47.666Z,68.30
2017-12-08T11:52:14.391Z,68.00
2017-12-08T11:54:41.795Z,67.90
2017-12-08T11:57:08.461Z,67.80
2017-12-08T11:59:35.190Z,68.30
2017-12-08T12:02:01.865Z,68.60
2017-12-08T12:04:28.570Z,68.90
2017-12-08T12:06:55.359Z,68.80
2017-12-08T12:09:22.794Z,70.00
2017-12-08T12:11:49.449Z,70.00
2017-12-08T12:14:16.138Z,70.10
2017-12-08T12:16:42.796Z,70.30
2017-12-08T12:19:09.458Z,70.80
2017-12-08T12:21:36.127Z,69.90
2017-12-08T12:24:02.814Z,70.20
2017-12-08T12:26:29.461Z,70.00
2017-12-08T12:28:56.168Z,70.00
2017-12-08T12:31:22.833Z,70.80
2017-12-08T12:33:49.659Z,70.00
2017-12-08T12:36:17.937Z,69.80
2017-12-08T12:38:44.599Z,69.80
2017-12-08T12:41:11.313Z,71.10
2017-12-08T12:43:38.758Z,72.40
2017-12-08T12:46:06.179Z,73.20
2017-12-08T12:48:32.905Z,73.20
2017-12-08T12:50:59.657Z,74.50
2017-12-08T12:53:26.342Z,73.50
2017-12-08T12:55:53.009Z,73.80
2017-12-08T12:58:20.527Z,74.60
2017-12-08T13:00:47.930Z,74.50
2017-12-08T13:03:15.325Z,74.60
2017-12-08T13:05:41.999Z,74.60
2017-12-08T13:08:08.651Z,75.00
2017-12-08T13:10:35.322Z,74.80
2017-12-08T13:13:01.981Z,74.10
2017-12-08T13:15:28.627Z,74.20
2017-12-08T13:17:55.281Z,75.00
2017-12-08T13:20:21.975Z,74.90
2017-12-08T13:22:48.608Z,76.00
2017-12-08T13:25:15.977Z,75.30
2017-12-08T13:27:42.657Z,75.50
2017-12-08T13:30:09.312Z,74.80
2017-12-08T13:32:35.978Z,75.30
2017-12-08T13:35:02.646Z,75.00
2017-12-08T13:37:29.283Z,75.00
2017-12-08T13:39:55.947Z,74.10
2017-12-08T13:42:22.742Z,74.70
2017-12-08T13:44:49.501Z,73.80
2017-12-08T13:47:16.146Z,73.60
2017-12-08T13:49:42.811Z,75.50
2017-12-08T13:52:09.493Z,73.60
2017-12-08T13:54:54.523Z,73.40
2017-12-08T13:57:21.206Z,73.50
2017-12-08T13:59:47.875Z,73.00
2017-12-08T14:02:14.603Z,74.00
2017-12-08T14:04:41.308Z,73.90
2017-12-08T14:07:09.641Z,73.90
2017-12-08T14:09:36.354Z,73.90
2017-12-08T14:12:03.046Z,73.20
2017-12-08T14:14:30.482Z,74.00
2017-12-08T14:16:57.203Z,74.10
2017-12-08T14:19:23.901Z,74.60
2017-12-08T14:21:50.618Z,73.30
2017-12-08T14:24:17.278Z,74.60
2017-12-08T14:26:43.938Z,74.60
2017-12-08T14:29:10.581Z,74.10
2017-12-08T14:31:37.274Z,74.80
2017-12-08T14:34:04.008Z,74.60
2017-12-08T14:36:30.767Z,74.90
2017-12-08T14:38:57.481Z,75.80
2017-12-08T14:41:24.178Z,75.60
2017-12-08T14:43:50.851Z,75.30
2017-12-08T14:46:17.548Z,76.20
2017-12-08T14:48:44.263Z,78.40
2017-12-08T14:51:10.940Z,78.10
2017-12-08T14:53:37.668Z,79.80
2017-12-08T14:56:04.366Z,81.40
2017-12-08T14:58:31.045Z,83.00
2017-12-08T15:00:57.801Z,84.80
2017-12-08T15:03:24.457Z,85.70
2017-12-08T15:05:51.154Z,87.20
2017-12-08T15:08:17.929Z,90.00
2017-12-08T15:10:44.672Z,90.70
2017-12-08T15:13:11.385Z,91.30
2017-12-08T15:15:38.879Z,92.50
2017-12-08T15:18:05.554Z,92.40
2017-12-08T15:20:32.239Z,93.20
2017-12-08T15:22:59.650Z,94.80
2017-12-08T15:25:26.412Z,94.80
2017-12-08T15:27:53.070Z,95.60
2017-12-08T15:30:19.726Z,96.40
2017-12-08T15:32:46.398Z,97.20
2017-12-08T15:35:13.092Z,97.90
2017-12-08T15:37:39.856Z,98.30
2017-12-08T15:40:07.349Z,99.00
2017-12-08T15:42:34.076Z,98.90
2017-12-08T15:45:00.786Z,99.10
2017-12-08T15:47:27.614Z,99.00
2017-12-08T15:49:54.365Z,99.40
2017-12-08T15:52:21.150Z,99.80
2017-12-08T15:54:48.641Z,99.90
2017-12-08T15:57:15.371Z,99.80
2017-12-08T15:59:42.028Z,99.90
2017-12-08T16:02:08.810Z,99.90
2017-12-08T16:04:35.517Z,99.90
2017-12-08T16:07:02.189Z,99.90
2017-12-08T16:09:28.854Z,99.90
2017-12-08T16:11:56.545Z,99.90
2017-12-08T16:14:23.211Z,99.90
2017-12-08T16:16:49.982Z,99.90
2017-12-08T16:19:16.692Z,99.90
2017-12-08T16:21:43.367Z,99.90
2017-12-08T16:24:10.046Z,99.90
2017-12-08T16:26:37.482Z,99.90
2017-12-08T16:29:04.234Z,99.90
2017-12-08T16:31:30.915Z,99.90
2017-12-08T16:33:57.634Z,99.90
2017-12-08T16:36:25.090Z,99.90
2017-12-08T16:38:52.650Z,99.90
2017-12-08T16:41:19.412Z,99.90
2017-12-08T16:43:46.894Z,99.90
2017-12-08T16:46:13.882Z,99.90
2017-12-08T16:48:40.559Z,99.90
2017-12-08T16:51:08.140Z,99.90
2017-12-08T16:53:34.799Z,99.90
2017-12-08T16:56:01.486Z,99.90
2017-12-08T16:58:28.221Z,99.90
2017-12-08T17:00:54.908Z,99.90
2017-12-08T17:03:22.522Z,99.90
2017-12-08T17:05:49.239Z,99.90
2017-12-08T17:08:16.062Z,99.90
2017-12-08T17:10:43.441Z,99.90
2017-12-08T17:13:10.582Z,99.90
2017-12-08T17:15:37.281Z,99.90
2017-12-08T17:18:04.107Z,99.90
2017-12-08T17:20:30.753Z,99.90
2017-12-08T17:22:57.438Z,99.90
2017-12-08T17:25:24.931Z,99.90
2017-12-08T17:27:51.700Z,99.90
2017-12-08T17:30:18.432Z,99.90
2017-12-08T17:32:45.208Z,99.90
2017-12-08T17:35:11.927Z,99.90
2017-12-08T17:37:38.636Z,99.90
2017-12-08T17:40:05.523Z,99.90
2017-12-08T17:42:32.206Z,99.90
2017-12-08T17:44:58.918Z,99.90
2017-12-08T17:47:25.562Z,99.90
2017-12-08T17:49:52.207Z,99.90
2017-12-08T17:52:18.997Z,99.90
2017-12-08T17:54:45.821Z,99.90
2017-12-08T17:57:12.770Z,99.90
2017-12-08T17:59:39.423Z,99.90
2017-12-08T18:02:06.897Z,99.80
2017-12-08T18:04:33.572Z,99.80
2017-12-08T18:07:00.284Z,99.90
2017-12-08T18:09:26.941Z,99.10
2017-12-08T18:11:53.706Z,99.70
2017-12-08T18:14:20.557Z,99.40
2017-12-08T18:16:47.319Z,99.20
2017-12-08T18:19:14.058Z,98.90
2017-12-08T18:21:40.819Z,99.60
2017-12-08T18:24:07.508Z,99.10
2017-12-08T18:26:34.178Z,99.60
2017-12-08T18:29:00.891Z,99.60
2017-12-08T18:31:27.591Z,98.80
2017-12-08T18:33:54.266Z,99.00
2017-12-08T18:36:21.726Z,98.00
2017-12-08T18:38:48.386Z,98.00
2017-12-08T18:41:15.107Z,98.90
2017-12-08T18:43:43.230Z,99.10
2017-12-08T18:46:09.971Z,99.10
2017-12-08T18:48:36.659Z,99.20
2017-12-08T18:51:03.503Z,99.30
2017-12-08T18:53:30.935Z,98.60
2017-12-08T18:55:57.642Z,98.50
2017-12-08T18:58:25.225Z,97.80
2017-12-08T19:00:51.952Z,97.60
2017-12-08T19:03:18.654Z,97.50
2017-12-08T19:05:46.167Z,96.80
2017-12-08T19:08:12.872Z,96.40
2017-12-08T19:10:40.363Z,97.00
2017-12-08T19:13:07.155Z,97.00
2017-12-08T19:15:34.606Z,98.20
2017-12-08T19:18:01.375Z,98.10
2017-12-08T19:20:28.065Z,98.20
2017-12-08T19:22:54.743Z,98.80
2017-12-08T19:25:21.483Z,99.30
2017-12-08T19:27:48.209Z,99.70
2017-12-08T19:30:15.999Z,99.60
2017-12-08T19:32:42.733Z,99.80
2017-12-08T19:35:10.953Z,99.90
2017-12-08T19:37:38.438Z,99.90
2017-12-08T19:40:05.155Z,99.90
2017-12-08T19:42:32.610Z,99.90
2017-12-08T19:44:59.290Z,99.90
2017-12-08T19:47:26.054Z,99.90
2017-12-08T19:49:52.730Z,99.90
2017-12-08T19:52:19.359Z,99.90
2017-12-08T19:54:46.127Z,99.90
2017-12-08T19:57:12.819Z,99.90
2017-12-08T19:59:39.510Z,99.90
2017-12-08T20:02:06.223Z,99.90
2017-12-08T20:04:32.894Z,99.90
2017-12-08T20:06:59.573Z,99.90
2017-12-08T20:09:26.269Z,99.90
2017-12-08T20:11:52.966Z,99.90
2017-12-08T20:14:20.505Z,99.90
2017-12-08T20:16:47.918Z,99.90
2017-12-08T20:19:14.624Z,99.90
2017-12-08T20:21:41.339Z,99.90
2017-12-08T20:24:08.100Z,99.90
2017-12-08T20:26:35.586Z,99.90
2017-12-08T20:29:02.264Z,99.90
2017-12-08T20:31:28.920Z,99.90
2017-12-08T20:33:56.246Z,99.90
2017-12-08T20:36:22.931Z,99.90
2017-12-08T20:38:50.311Z,99.90
2017-12-08T20:41:17.720Z,99.90
2017-12-08T20:43:44.457Z,99.90
2017-12-08T20:46:11.138Z,99.90
2017-12-08T20:48:37.815Z,99.90
2017-12-08T20:51:04.495Z,99.90
2017-12-08T20:53:31.135Z,99.90
2017-12-08T20:55:57.798Z,99.90
2017-12-08T20:58:24.491Z,99.90
2017-12-08T21:00:51.725Z,99.90
2017-12-08T21:03:19.145Z,99.90
2017-12-08T21:05:45.818Z,99.90
2017-12-08T21:08:13.223Z,99.90
2017-12-08T21:10:39.927Z,99.90
2017-12-08T21:13:07.341Z,99.90
2017-12-08T21:15:34.001Z,99.90
2017-12-08T21:18:00.698Z,99.90
2017-12-08T21:20:27.367Z,99.90
2017-12-08T21:22:54.013Z,99.90
2017-12-08T21:25:20.735Z,99.90
2017-12-08T21:27:47.463Z,99.90
2017-12-08T21:30:14.139Z,99.90
2017-12-08T21:32:40.837Z,99.90
2017-12-08T21:35:08.238Z,99.90
2017-12-08T21:37:34.881Z,99.90
2017-12-08T21:40:01.561Z,99.90
2017-12-08T21:42:28.253Z,99.90
2017-12-08T21:44:54.923Z,99.90
2017-12-08T21:47:21.591Z,99.90
2017-12-08T21:49:48.272Z,99.90
2017-12-08T21:52:14.925Z,99.90
2017-12-08T21:54:41.669Z,99.90
2017-12-08T21:57:08.334Z,99.90
2017-12-08T21:59:35.011Z,99.90
2017-12-08T22:02:02.486Z,99.90
2017-12-08T22:04:30.856Z,99.90
2017-12-08T22:06:58.321Z,99.90
2017-12-08T22:09:25.894Z,99.90
2017-12-08T22:11:53.805Z,99.90
2017-12-08T22:14:20.557Z,99.90
2017-12-08T22:16:47.269Z,99.90
2017-12-08T22:19:14.027Z,99.90
2017-12-08T22:21:40.675Z,99.90
2017-12-08T22:24:07.351Z,99.90
2017-12-08T22:26:34.071Z,99.90
2017-12-08T22:29:00.724Z,99.90
2017-12-08T22:31:27.422Z,99.90
2017-12-08T22:33:54.135Z,99.90
2017-12-08T22:36:20.818Z,99.90
2017-12-08T22:38:47.467Z,99.90
2017-12-08T22:41:14.193Z,99.90
2017-12-08T22:43:40.858Z,99.90
2017-12-08T22:46:07.553Z,99.90
2017-12-08T22:48:35.014Z,99.90
2017-12-08T22:51:01.687Z,99.90
2017-12-08T22:53:28.353Z,99.90
2017-12-08T22:55:55.041Z,99.90
2017-12-08T22:58:21.726Z,99.90
2017-12-08T23:00:48.501Z,99.90
2017-12-08T23:03:15.214Z,99.90
2017-12-08T23:05:41.886Z,99.90
2017-12-08T23:08:08.555Z,99.90
2017-12-08T23:10:35.267Z,99.90
2017-12-08T23:13:01.896Z,99.90
2017-12-08T23:15:28.574Z,99.90
2017-12-08T23:17:55.242Z,99.90
2017-12-08T23:20:22.656Z,99.90
2017-12-08T23:22:49.319Z,99.90
2017-12-08T23:25:16.898Z,99.90
2017-12-08T23:27:44.273Z,99.90
2017-12-08T23:30:11.713Z,99.90
2017-12-08T23:32:38.370Z,99.90
2017-12-08T23:35:05.746Z,99.90
2017-12-08T23:37:32.419Z,99.90
2017-12-08T23:39:59.234Z,99.90
2017-12-08T23:42:25.870Z,99.90
2017-12-08T23:44:54.199Z,99.90
2017-12-08T23:47:20.900Z,99.90
2017-12-08T23:49:47.582Z,99.90
2017-12-08T23:52:14.253Z,99.90
2017-12-08T23:54:40.903Z,99.90
2017-12-08T23:57:07.561Z,99.90
2017-12-08T23:59:34.960Z,99.90
